Time;durP1;ratioP1;P1;durP2;ratioP2;P2;SDS_P1;SDS_P2;PMS_P1;PMS_P2;Temp;Humidity;BMP_temperature;BMP_pressure;BME280_temperature;BME280_humidity;BME280_pressure;Samples;Min_cycle;Max_cycle;Signal;HPM_P1;HPM_P2
2023/07/21 00:02:25;;;;;;;8.98;7.55;;;27.60;1.00;;;;;;5034637;28;20124;-65
2023/07/21 00:04:51;;;;;;;9.25;7.72;;;27.60;99.90;;;;;;5034779;28;20037;-65
2023/07/21 00:07:17;;;;;;;9.13;8.13;;;27.50;99.90;;;;;;5033600;28;20033;-65
2023/07/21 00:09:43;;;;;;;10.88;8.48;;;27.50;1.00;;;;;;5033216;28;20031;-65
2023/07/21 00:12:09;;;;;;;9.63;8.40;;;27.60;99.90;;;;;;5034425;28;20030;-65
2023/07/21 00:14:35;;;;;;;8.95;7.85;;;27.60;99.90;;;;;;5033526;28;20025;-65
2023/07/21 00:17:04;;;;;;;11.23;8.35;;;27.60;99.90;;;;;;5034500;28;20578;-64
2023/07/21 00:19:30;;;;;;;9.95;7.18;;;27.60;1.00;;;;;;5021035;28;20037;-65
2023/07/21 00:21:56;;;;;;;9.00;7.80;;;27.60;99.90;;;;;;5032887;28;20030;-65
2023/07/21 00:24:22;;;;;;;11.90;8.20;;;27.60;99.90;;;;;;5033808;28;20100;-65
2023/07/21 00:26:47;;;;;;;9.70;7.65;;;27.50;99.90;;;;;;5024219;28;20054;-65
2023/07/21 00:29:13;;;;;;;9.00;8.20;;;27.40;99.90;;;;;;5030495;28;20029;-65
2023/07/21 00:31:42;;;;;;;11.05;8.10;;;27.60;99.90;;;;;;5031468;28;20029;-65
2023/07/21 00:34:08;;;;;;;8.90;7.90;;;27.60;99.90;;;;;;5029108;28;20033;-65
2023/07/21 00:36:34;;;;;;;13.60;8.88;;;27.60;99.90;;;;;;5034037;28;20022;-65
2023/07/21 00:38:59;;;;;;;8.10;7.30;;;27.50;99.90;;;;;;5032664;28;20029;-65
2023/07/21 00:41:26;;;;;;;11.60;8.02;;;27.50;99.90;;;;;;5033838;28;20052;-65
2023/07/21 00:43:52;;;;;;;10.27;8.23;;;27.60;99.90;;;;;;5034216;28;20029;-65
2023/07/21 00:46:18;;;;;;;9.77;8.38;;;27.50;99.90;;;;;;5033838;28;20071;-65
2023/07/21 00:48:43;;;;;;;9.85;8.68;;;27.60;99.90;;;;;;5034177;28;20116;-65
2023/07/21 00:51:10;;;;;;;11.13;8.38;;;27.40;99.90;;;;;;5032585;28;20021;-65
2023/07/21 00:53:36;;;;;;;11.55;8.77;;;27.70;99.90;;;;;;5033878;28;20498;-65
2023/07/21 00:56:04;;;;;;;10.70;7.95;;;27.70;99.90;;;;;;5033386;28;20383;-65
2023/07/21 00:58:30;;;;;;;11.65;7.93;;;27.50;99.90;;;;;;5033432;28;20487;-65
2023/07/21 01:00:56;;;;;;;8.73;7.93;;;27.50;99.90;;;;;;5033998;28;20091;-65
2023/07/21 01:03:22;;;;;;;9.07;8.18;;;27.50;99.90;;;;;;5033558;28;20061;-65
2023/07/21 01:05:52;;;;;;;9.00;7.90;;;27.50;99.90;;;;;;5026944;28;20025;-65
2023/07/21 01:08:19;;;;;;;9.38;7.75;;;27.60;99.90;;;;;;5028905;28;20372;-65
2023/07/21 01:10:47;;;;;;;9.40;8.50;;;27.40;99.90;;;;;;5033571;28;20014;-65
2023/07/21 01:13:13;;;;;;;9.07;8.00;;;27.40;99.90;;;;;;5033409;28;20043;-65
2023/07/21 01:15:50;;;;;;;11.10;8.27;;;27.50;99.90;;;;;;5019511;28;20083;-65
2023/07/21 01:18:18;;;;;;;8.52;7.68;;;27.40;99.90;;;;;;5033542;28;20120;-65
2023/07/21 01:20:45;;;;;;;8.75;7.85;;;27.40;99.90;;;;;;5033107;28;20033;-65
2023/07/21 01:23:43;;;;;;;10.07;8.52;;;27.30;99.90;;;;;;5030970;28;20446;-65
2023/07/21 01:26:11;;;;;;;13.95;8.35;;;27.40;99.90;;;;;;5030019;28;20037;-65
2023/07/21 01:28:40;;;;;;;11.27;7.72;;;27.40;99.90;;;;;;5033505;28;20453;-65
2023/07/21 01:31:06;;;;;;;10.05;7.80;;;27.40;99.90;;;;;;5032542;28;20414;-65
2023/07/21 01:33:33;;;;;;;10.25;7.93;;;27.30;99.90;;;;;;5032540;28;20045;-65
2023/07/21 01:36:01;;;;;;;11.45;8.32;;;27.30;99.90;;;;;;5031339;28;20360;-65
2023/07/21 01:38:29;;;;;;;10.13;7.93;;;27.30;99.90;;;;;;5027712;28;20025;-64
2023/07/21 01:40:55;;;;;;;13.27;8.75;;;27.20;99.90;;;;;;5029071;28;20025;-65
2023/07/21 01:43:23;;;;;;;10.35;8.23;;;27.30;99.90;;;;;;5032190;28;20033;-65
2023/07/21 01:45:49;;;;;;;9.60;8.30;;;27.30;99.90;;;;;;5032777;28;20030;-65
2023/07/21 01:48:15;;;;;;;9.27;7.88;;;27.30;99.90;;;;;;5032997;28;20063;-65
2023/07/21 01:50:42;;;;;;;10.27;8.68;;;27.20;99.90;;;;;;5032910;28;20376;-65
2023/07/21 01:53:17;;;;;;;10.18;7.70;;;27.20;99.90;;;;;;5032817;28;20495;-65
2023/07/21 01:55:50;;;;;;;8.57;7.68;;;27.20;99.90;;;;;;5031938;28;20018;-65
2023/07/21 01:58:19;;;;;;;10.82;8.45;;;27.10;99.90;;;;;;5032564;28;20025;-65
2023/07/21 02:00:47;;;;;;;10.38;8.15;;;27.20;99.90;;;;;;5032920;28;20538;-65
2023/07/21 02:03:15;;;;;;;10.18;8.45;;;27.20;99.90;;;;;;5032915;28;20021;-67
2023/07/21 02:05:41;;;;;;;8.48;7.28;;;27.20;99.90;;;;;;5032727;28;20055;-66
2023/07/21 02:08:09;;;;;;;9.57;7.57;;;27.30;99.90;;;;;;5032835;28;20479;-66
2023/07/21 02:10:36;;;;;;;12.70;9.43;;;27.30;99.90;;;;;;5032681;28;20091;-66
2023/07/21 02:13:04;;;;;;;9.43;8.38;;;27.30;99.90;;;;;;5031734;28;20432;-66
2023/07/21 02:15:29;;;;;;;10.90;9.05;;;27.20;99.90;;;;;;5032595;28;20112;-66
2023/07/21 02:17:55;;;;;;;9.98;8.32;;;27.20;99.90;;;;;;5032937;28;20446;-66
2023/07/21 02:20:21;;;;;;;9.82;8.77;;;27.20;99.90;;;;;;5032964;28;20428;-66
2023/07/21 02:22:47;;;;;;;11.35;8.85;;;26.90;99.90;;;;;;5032545;28;20036;-66
2023/07/21 02:25:13;;;;;;;11.02;9.38;;;27.20;99.90;;;;;;5032658;28;20025;-66
2023/07/21 02:27:39;;;;;;;10.55;9.38;;;27.10;99.90;;;;;;5032479;28;20037;-66
2023/07/21 02:30:06;;;;;;;13.00;9.63;;;27.10;99.90;;;;;;5032780;28;20030;-66
2023/07/21 02:32:31;;;;;;;12.77;11.13;;;27.10;99.90;;;;;;5031291;28;20502;-66
2023/07/21 02:34:58;;;;;;;10.98;9.60;;;27.00;1.00;;;;;;5032851;28;20025;-66
2023/07/21 02:37:25;;;;;;;12.38;9.48;;;27.10;1.00;;;;;;5032773;28;20387;-66
2023/07/21 02:39:50;;;;;;;13.45;9.77;;;27.10;1.00;;;;;;5032686;28;20391;-66
2023/07/21 02:42:16;;;;;;;13.07;10.70;;;27.20;1.00;;;;;;5032764;28;20017;-66
2023/07/21 02:44:42;;;;;;;12.70;10.18;;;27.10;1.00;;;;;;5032669;28;20418;-66
2023/07/21 02:47:09;;;;;;;12.93;10.75;;;27.00;1.00;;;;;;5024636;28;20045;-66
2023/07/21 02:49:34;;;;;;;11.93;10.70;;;27.00;1.00;;;;;;5031360;28;20520;-66
2023/07/21 02:52:00;;;;;;;14.88;11.50;;;27.00;1.00;;;;;;5034572;28;20045;-66
2023/07/21 02:54:25;;;;;;;13.70;11.15;;;27.00;1.00;;;;;;5035978;28;20045;-66
2023/07/21 02:56:51;;;;;;;14.38;12.10;;;27.10;1.00;;;;;;5030429;28;20061;-66
2023/07/21 02:59:17;;;;;;;13.02;11.70;;;27.20;1.00;;;;;;5027387;28;20076;-67
2023/07/21 03:01:54;;;;;;;15.02;11.13;;;27.20;1.00;;;;;;5022105;28;20033;-67
2023/07/21 03:04:27;;;;;;;12.45;10.73;;;27.20;1.00;;;;;;5034656;28;20445;-66
2023/07/21 03:06:52;;;;;;;13.50;11.93;;;27.30;1.00;;;;;;5033807;28;20032;-66
2023/07/21 03:09:19;;;;;;;13.70;10.98;;;27.10;1.00;;;;;;5035557;28;20438;-66
2023/07/21 03:11:45;;;;;;;13.80;11.00;;;27.20;1.00;;;;;;5035503;28;20025;-66
2023/07/21 03:14:11;;;;;;;16.52;11.13;;;27.30;1.00;;;;;;5035962;28;20034;-66
2023/07/21 03:16:36;;;;;;;11.07;9.90;;;27.40;1.00;;;;;;5035875;28;20368;-66
2023/07/21 03:19:02;;;;;;;12.43;9.20;;;27.40;1.00;;;;;;5034121;28;20018;-66
2023/07/21 03:21:28;;;;;;;11.18;8.95;;;27.30;1.00;;;;;;5034345;28;20072;-66
2023/07/21 03:23:55;;;;;;;11.32;9.23;;;27.30;1.00;;;;;;5035404;28;20025;-66
2023/07/21 03:26:21;;;;;;;10.48;9.35;;;27.30;99.90;;;;;;5035409;28;20037;-66
2023/07/21 03:28:47;;;;;;;11.57;9.20;;;27.40;99.90;;;;;;5035242;28;20483;-66
2023/07/21 03:31:13;;;;;;;10.45;8.27;;;27.30;99.90;;;;;;5035319;28;20021;-67
2023/07/21 03:33:39;;;;;;;11.63;8.65;;;27.40;99.90;;;;;;5035334;28;20065;-66
2023/07/21 03:36:05;;;;;;;11.85;8.57;;;27.40;99.90;;;;;;5035344;28;20033;-66
2023/07/21 03:38:37;;;;;;;9.93;8.63;;;27.30;99.90;;;;;;5025197;28;20037;-66
2023/07/21 03:41:07;;;;;;;10.50;8.85;;;27.30;99.90;;;;;;5034318;28;20096;-66
2023/07/21 03:43:35;;;;;;;10.18;9.13;;;27.30;99.90;;;;;;5034905;28;20391;-66
2023/07/21 03:46:02;;;;;;;9.93;8.38;;;27.30;99.90;;;;;;5035237;28;20025;-66
2023/07/21 03:48:29;;;;;;;10.13;9.13;;;27.20;99.90;;;;;;5035031;28;20033;-66
2023/07/21 03:50:58;;;;;;;12.00;9.70;;;27.20;1.00;;;;;;5035159;28;20025;-66
2023/07/21 03:53:25;;;;;;;12.55;9.30;;;27.20;1.00;;;;;;5034781;28;20031;-66
2023/07/21 03:55:50;;;;;;;13.07;10.52;;;27.20;1.00;;;;;;5033635;28;20025;-66
2023/07/21 03:58:16;;;;;;;10.77;9.25;;;27.20;1.00;;;;;;5033791;28;20391;-66
2023/07/21 04:00:42;;;;;;;11.00;9.80;;;27.20;1.00;;;;;;5034736;28;20037;-66
2023/07/21 04:03:12;;;;;;;12.05;10.63;;;27.10;1.00;;;;;;5021078;28;20026;-66
2023/07/21 04:05:38;;;;;;;10.93;9.65;;;27.10;1.00;;;;;;5027145;28;20084;-66
2023/07/21 04:08:04;;;;;;;11.27;10.07;;;27.20;1.00;;;;;;5028319;28;20033;-66
2023/07/21 04:10:30;;;;;;;13.00;9.70;;;27.10;1.00;;;;;;5034361;28;20021;-66
2023/07/21 04:12:56;;;;;;;10.93;9.77;;;27.20;1.00;;;;;;5033504;28;20030;-66
2023/07/21 04:15:26;;;;;;;13.13;10.50;;;27.10;1.00;;;;;;5034354;28;20060;-66
2023/07/21 04:17:54;;;;;;;11.63;10.30;;;27.00;1.00;;;;;;5034692;28;20479;-66
2023/07/21 04:20:23;;;;;;;15.73;11.63;;;27.00;1.00;;;;;;5034332;28;20032;-66
2023/07/21 04:22:50;;;;;;;12.75;11.35;;;27.00;1.00;;;;;;5034451;28;20030;-65
2023/07/21 04:25:17;;;;;;;15.75;11.82;;;27.00;1.00;;;;;;5034408;28;20033;-66
2023/07/21 04:27:45;;;;;;;14.38;12.80;;;26.90;1.00;;;;;;5033017;28;20103;-66
2023/07/21 04:30:11;;;;;;;14.65;12.98;;;26.70;1.00;;;;;;5034287;28;20472;-66
2023/07/21 04:32:39;;;;;;;13.45;12.00;;;26.80;1.00;;;;;;5033956;28;20092;-66
2023/07/21 04:35:08;;;;;;;13.95;12.38;;;26.80;1.00;;;;;;5034141;28;20450;-65
2023/07/21 04:37:34;;;;;;;14.32;12.77;;;26.80;1.00;;;;;;5033936;28;20013;-66
2023/07/21 04:40:00;;;;;;;17.08;13.18;;;26.80;1.00;;;;;;5033987;28;20376;-66
2023/07/21 04:42:26;;;;;;;16.67;13.38;;;26.90;1.00;;;;;;5032783;28;20034;-66
2023/07/21 04:44:52;;;;;;;16.90;14.55;;;26.90;1.00;;;;;;5033814;28;20060;-66
2023/07/21 04:47:18;;;;;;;14.75;12.43;;;26.80;1.00;;;;;;5033769;28;20030;-66
2023/07/21 04:49:43;;;;;;;15.73;12.63;;;26.80;1.00;;;;;;5033680;28;20018;-66
2023/07/21 04:52:09;;;;;;;15.07;13.48;;;26.80;1.00;;;;;;5033774;28;20037;-66
2023/07/21 04:54:37;;;;;;;15.13;12.52;;;26.80;1.00;;;;;;5032442;28;20025;-65
2023/07/21 04:57:03;;;;;;;14.77;12.32;;;26.80;1.00;;;;;;5032781;28;20501;-65
2023/07/21 04:59:29;;;;;;;13.38;11.98;;;26.80;1.00;;;;;;5029712;28;20037;-66
2023/07/21 05:01:55;;;;;;;17.30;12.75;;;26.80;1.00;;;;;;5029435;28;20043;-66
2023/07/21 05:04:20;;;;;;;16.88;12.45;;;26.80;1.00;;;;;;5033382;28;20040;-67
2023/07/21 05:06:47;;;;;;;16.35;12.45;;;26.70;1.00;;;;;;5033302;28;20017;-66
2023/07/21 05:09:14;;;;;;;14.48;11.75;;;26.80;1.00;;;;;;5033051;28;20017;-66
2023/07/21 05:11:40;;;;;;;12.93;11.15;;;26.80;1.00;;;;;;5033748;28;20092;-66
2023/07/21 05:14:06;;;;;;;13.52;11.40;;;26.80;1.00;;;;;;5033437;28;20091;-65
2023/07/21 05:16:35;;;;;;;12.30;10.85;;;26.80;1.00;;;;;;5032381;28;20017;-66
2023/07/21 05:19:00;;;;;;;18.27;11.75;;;26.80;1.00;;;;;;5033225;28;20457;-65
2023/07/21 05:21:26;;;;;;;13.85;10.55;;;26.90;1.00;;;;;;5033277;28;20051;-65
2023/07/21 05:23:52;;;;;;;13.95;11.63;;;26.90;1.00;;;;;;5033368;28;20053;-66
2023/07/21 05:26:18;;;;;;;12.90;11.45;;;26.80;1.00;;;;;;5033545;28;20045;-66
2023/07/21 05:28:43;;;;;;;16.38;11.27;;;26.90;1.00;;;;;;5033105;28;20061;-66
2023/07/21 05:31:11;;;;;;;18.10;11.43;;;26.90;1.00;;;;;;5029933;28;20450;-66
2023/07/21 05:33:37;;;;;;;12.70;10.55;;;26.90;1.00;;;;;;5031776;28;20037;-66
2023/07/21 05:36:08;;;;;;;17.73;11.80;;;26.90;1.00;;;;;;5019849;28;20468;-66
2023/07/21 05:38:37;;;;;;;16.25;10.68;;;26.80;1.00;;;;;;5029290;28;20487;-66
2023/07/21 05:41:04;;;;;;;13.55;9.95;;;26.90;1.00;;;;;;5029661;28;20096;-66
2023/07/21 05:43:29;;;;;;;13.70;10.52;;;26.90;1.00;;;;;;5034180;28;20047;-66
2023/07/21 05:45:55;;;;;;;10.98;9.40;;;26.80;1.00;;;;;;5030894;28;20377;-67
2023/07/21 05:48:21;;;;;;;12.95;10.30;;;26.90;1.00;;;;;;5032612;28;20044;-65
2023/07/21 05:50:46;;;;;;;10.80;9.70;;;26.90;1.00;;;;;;5032940;28;20057;-65
2023/07/21 05:53:12;;;;;;;12.13;9.52;;;26.90;1.00;;;;;;5032547;28;20037;-66
2023/07/21 05:55:44;;;;;;;10.23;8.88;;;26.90;1.00;;;;;;5029711;28;20026;-66
2023/07/21 05:58:10;;;;;;;12.43;9.40;;;26.80;1.00;;;;;;5031642;28;20025;-66
2023/07/21 06:00:39;;;;;;;10.13;8.82;;;26.90;1.00;;;;;;5032539;28;20025;-66
2023/07/21 06:03:05;;;;;;;12.30;9.80;;;26.80;1.00;;;;;;5032394;28;20021;-66
2023/07/21 06:05:32;;;;;;;11.60;9.07;;;26.80;1.00;;;;;;5032427;28;20021;-66
2023/07/21 06:07:58;;;;;;;14.02;8.23;;;26.80;1.00;;;;;;5032572;28;20112;-66
2023/07/21 06:10:23;;;;;;;10.15;8.25;;;27.00;1.00;;;;;;5032451;28;20105;-66
2023/07/21 06:12:49;;;;;;;15.07;8.65;;;26.90;1.00;;;;;;5032710;28;20045;-66
2023/07/21 06:15:15;;;;;;;12.10;8.70;;;26.90;1.00;;;;;;5028348;28;20386;-66
2023/07/21 06:17:41;;;;;;;8.73;7.65;;;26.80;1.00;;;;;;5027700;28;20036;-65
2023/07/21 06:20:09;;;;;;;10.15;8.30;;;26.90;1.00;;;;;;5032017;28;20057;-66
2023/07/21 06:22:35;;;;;;;12.93;8.27;;;26.80;1.00;;;;;;5036050;28;20049;-66
2023/07/21 06:25:03;;;;;;;11.32;7.90;;;26.80;1.00;;;;;;5034951;28;20033;-66
2023/07/21 06:27:30;;;;;;;11.73;8.18;;;26.80;1.00;;;;;;5033281;28;20387;-66
2023/07/21 06:29:55;;;;;;;10.80;7.78;;;26.80;1.00;;;;;;5034630;28;20387;-66
2023/07/21 06:32:21;;;;;;;9.00;7.35;;;26.70;1.00;;;;;;5035797;28;20080;-66
2023/07/21 06:34:47;;;;;;;8.98;7.53;;;26.80;1.00;;;;;;5034901;28;20475;-65
2023/07/21 06:37:13;;;;;;;10.07;8.82;;;26.90;1.00;;;;;;5036404;28;20025;-65
2023/07/21 06:39:39;;;;;;;15.13;8.18;;;26.90;1.00;;;;;;5036505;28;20026;-65
2023/07/21 06:42:05;;;;;;;10.38;7.25;;;27.00;1.00;;;;;;5036073;28;20026;-65
2023/07/21 06:44:32;;;;;;;9.77;8.43;;;27.00;1.00;;;;;;5036241;28;20025;-65
2023/07/21 06:46:58;;;;;;;10.52;8.07;;;27.00;1.00;;;;;;5036442;28;20025;-66
2023/07/21 06:49:23;;;;;;;13.73;9.40;;;27.00;1.00;;;;;;5036311;28;20382;-65
2023/07/21 06:51:49;;;;;;;11.48;7.03;;;27.10;1.00;;;;;;5035823;28;20552;-74
2023/07/21 06:54:15;;;;;;;14.65;9.02;;;27.00;1.00;;;;;;5036743;28;20449;-73
2023/07/21 06:56:40;;;;;;;11.57;8.40;;;27.10;1.00;;;;;;5036230;28;20493;-73
2023/07/21 06:59:06;;;;;;;11.75;8.52;;;27.00;1.00;;;;;;5036095;28;20104;-73
2023/07/21 07:01:32;;;;;;;13.50;7.72;;;27.10;1.00;;;;;;5036205;28;20056;-75
2023/07/21 07:03:59;;;;;;;9.93;7.95;;;27.10;1.00;;;;;;5035906;28;20460;-69
2023/07/21 07:06:27;;;;;;;9.40;7.22;;;27.10;1.00;;;;;;5035772;28;20010;-68
2023/07/21 07:08:53;;;;;;;9.90;7.30;;;27.20;1.00;;;;;;5035860;28;20022;-71
2023/07/21 07:11:18;;;;;;;10.30;7.45;;;27.10;1.00;;;;;;5035987;28;20471;-77
2023/07/21 07:13:44;;;;;;;8.68;6.93;;;27.30;1.00;;;;;;5035689;28;20065;-76
2023/07/21 07:16:10;;;;;;;10.13;7.20;;;27.40;1.00;;;;;;5035753;28;20021;-77
2023/07/21 07:18:36;;;;;;;12.20;8.02;;;27.40;1.00;;;;;;5035503;28;20029;-69
2023/07/21 07:21:03;;;;;;;10.02;8.23;;;27.40;1.00;;;;;;5035432;28;20087;-70
2023/07/21 07:23:29;;;;;;;9.15;6.78;;;27.30;1.00;;;;;;5035359;28;20418;-74
2023/07/21 07:25:55;;;;;;;10.68;7.10;;;27.40;1.00;;;;;;5035361;28;20108;-84
2023/07/21 07:28:21;;;;;;;13.48;7.60;;;27.50;1.00;;;;;;5035648;28;20092;-76
2023/07/21 07:30:48;;;;;;;10.20;8.60;;;27.40;1.00;;;;;;5035477;28;20525;-69
2023/07/21 07:33:14;;;;;;;12.18;8.77;;;27.60;1.00;;;;;;5035506;28;20112;-78
2023/07/21 07:35:53;;;;;;;11.00;8.95;;;27.60;1.00;;;;;;5036442;28;20026;-79
2023/07/21 07:38:24;;;;;;;10.25;8.73;;;27.60;1.00;;;;;;5035852;28;20394;-76
2023/07/21 07:40:50;;;;;;;9.70;8.02;;;27.80;1.00;;;;;;5035922;28;20112;-71
2023/07/21 07:43:16;;;;;;;12.30;8.95;;;27.90;1.00;;;;;;5036879;28;20034;-67
2023/07/21 07:45:43;;;;;;;12.52;10.20;;;28.00;1.00;;;;;;5035781;28;20030;-69
2023/07/21 07:48:09;;;;;;;13.77;10.43;;;28.00;1.00;;;;;;5023075;28;20060;-74
2023/07/21 07:50:39;;;;;;;12.57;10.40;;;28.00;1.00;;;;;;5036773;28;20055;-74
2023/07/21 07:53:08;;;;;;;11.27;10.13;;;28.10;1.00;;;;;;5035228;28;20033;-79
2023/07/21 07:55:42;;;;;;;15.43;10.82;;;28.20;1.00;;;;;;5034630;28;20022;-74
2023/07/21 07:58:09;;;;;;;9.95;9.00;;;28.30;1.00;;;;;;5035096;28;20443;-80
2023/07/21 08:00:36;;;;;;;12.27;10.20;;;28.50;1.00;;;;;;5035711;28;20061;-77
2023/07/21 08:03:06;;;;;;;11.85;10.43;;;28.40;1.00;;;;;;5021135;28;20068;-70
2023/07/21 08:05:32;;;;;;;11.73;9.82;;;28.30;1.00;;;;;;5034677;28;20033;-69
2023/07/21 08:08:01;;;;;;;12.55;11.10;;;28.20;1.00;;;;;;5034497;28;20032;-69
2023/07/21 08:10:28;;;;;;;16.23;11.35;;;28.10;1.00;;;;;;5034692;28;20056;-70
2023/07/21 08:12:59;;;;;;;13.55;9.65;;;28.10;1.00;;;;;;5034450;28;20060;-66
2023/07/21 08:15:25;;;;;;;12.70;9.63;;;28.10;1.00;;;;;;5034244;28;20467;-70
2023/07/21 08:17:51;;;;;;;12.30;8.50;;;28.00;1.00;;;;;;5034668;28;20038;-69
2023/07/21 08:20:18;;;;;;;14.02;11.13;;;28.00;1.00;;;;;;5033339;28;20064;-77
2023/07/21 08:22:45;;;;;;;18.48;12.38;;;27.90;1.00;;;;;;5032472;28;20053;-78
2023/07/21 08:25:11;;;;;;;15.70;12.57;;;27.70;1.00;;;;;;5032702;28;20429;-71
2023/07/21 08:27:37;;;;;;;14.65;11.90;;;27.60;1.00;;;;;;5032769;28;20033;-76
2023/07/21 08:30:04;;;;;;;12.80;10.38;;;27.60;1.00;;;;;;5034202;28;20017;-71
2023/07/21 08:32:30;;;;;;;15.57;13.30;;;27.60;1.00;;;;;;5032518;28;20030;-68
2023/07/21 08:34:56;;;;;;;14.27;10.48;;;27.50;1.00;;;;;;5032908;28;20475;-70
2023/07/21 08:37:22;;;;;;;14.68;10.00;;;27.50;1.00;;;;;;5034089;28;20029;-68
2023/07/21 08:39:48;;;;;;;12.20;10.63;;;27.60;1.00;;;;;;5033934;28;20029;-66
2023/07/21 08:42:13;;;;;;;15.18;11.88;;;27.70;1.00;;;;;;5033871;28;20345;-67
2023/07/21 08:44:40;;;;;;;13.48;12.13;;;27.50;1.00;;;;;;5032118;28;20036;-70
2023/07/21 08:47:06;;;;;;;15.38;12.85;;;27.20;1.00;;;;;;5033807;28;20037;-68
2023/07/21 08:49:32;;;;;;;14.98;12.23;;;26.80;1.00;;;;;;5033729;28;20063;-67
2023/07/21 08:51:58;;;;;;;10.80;5.45;;;26.30;99.90;;;;;;5033677;28;20059;-70
2023/07/21 08:54:24;;;;;;;5.72;3.33;;;25.60;1.00;;;;;;5033754;28;20441;-72
2023/07/21 08:56:50;;;;;;;11.85;4.78;;;23.30;1.00;;;;;;5033706;28;20140;-63
2023/07/21 08:59:18;;;;;;;15.52;5.72;;;22.50;1.00;;;;;;5033388;28;20099;-67
2023/07/21 09:01:44;;;;;;;18.70;6.20;;;23.10;1.00;;;;;;5033560;28;20040;-63
2023/07/21 09:04:30;;;;;;;10.75;5.13;;;22.90;1.00;;;;;;5033356;28;20030;-67
2023/07/21 09:06:59;;;;;;;7.32;3.80;;;22.60;1.00;;;;;;5021492;28;20408;-69
2023/07/21 09:09:27;;;;;;;9.18;4.20;;;22.00;1.00;;;;;;5033400;28;20032;-67
2023/07/21 09:12:05;;;;;;;7.45;4.28;;;22.10;99.90;;;;;;5019969;28;20029;-69
2023/07/21 09:14:40;;;;;;;11.00;5.60;;;21.30;99.90;;;;;;5033616;28;20026;-72
2023/07/21 09:17:08;;;;;;;12.38;4.88;;;21.60;99.90;;;;;;5020697;28;20124;-70
2023/07/21 09:19:39;;;;;;;16.40;5.72;;;21.60;99.90;;;;;;5033154;28;20025;-67
2023/07/21 09:22:05;;;;;;;15.68;6.30;;;21.40;99.90;;;;;;5033605;28;20052;-68
2023/07/21 09:24:31;;;;;;;11.50;5.20;;;21.80;99.90;;;;;;5033143;28;20025;-67
2023/07/21 09:27:18;;;;;;;9.40;4.97;;;21.90;99.90;;;;;;5033267;28;20025;-64
2023/07/21 09:29:45;;;;;;;6.00;4.10;;;21.80;99.90;;;;;;5032847;28;20044;-64
2023/07/21 09:32:19;;;;;;;5.68;4.53;;;21.90;99.90;;;;;;5032865;28;20065;-64
2023/07/21 09:35:05;;;;;;;10.07;6.25;;;22.10;99.90;;;;;;5032874;28;20116;-70
2023/07/21 09:37:32;;;;;;;9.48;5.32;;;22.40;99.90;;;;;;5019449;28;20033;-68
2023/07/21 09:40:05;;;;;;;7.45;4.70;;;22.80;99.90;;;;;;5032976;28;20548;-68
2023/07/21 09:42:32;;;;;;;7.28;4.00;;;23.00;99.90;;;;;;5031624;28;20048;-69
2023/07/21 09:44:58;;;;;;;5.53;3.75;;;22.90;99.90;;;;;;5032867;28;20472;-68
2023/07/21 09:47:25;;;;;;;6.25;3.75;;;23.00;99.90;;;;;;5033163;28;20375;-68
2023/07/21 09:49:54;;;;;;;5.78;4.22;;;23.50;99.90;;;;;;5032912;28;20027;-68
2023/07/21 09:52:22;;;;;;;6.85;4.35;;;23.70;99.90;;;;;;5032737;28;20133;-68
2023/07/21 09:54:55;;;;;;;8.35;5.00;;;23.80;99.90;;;;;;5033018;28;20034;-68
2023/07/21 09:57:23;;;;;;;5.85;4.47;;;24.00;99.90;;;;;;5036332;28;20064;-68
2023/07/21 09:59:50;;;;;;;4.85;4.13;;;24.10;99.90;;;;;;5036804;28;20049;-69
2023/07/21 10:02:16;;;;;;;4.63;3.90;;;24.30;99.90;;;;;;5037145;28;20022;-68
2023/07/21 10:04:46;;;;;;;5.25;4.00;;;24.20;99.90;;;;;;5023152;28;20029;-68
2023/07/21 10:07:13;;;;;;;7.05;4.78;;;24.40;99.90;;;;;;5036686;28;20061;-73
2023/07/21 10:09:39;;;;;;;5.55;3.65;;;24.60;99.90;;;;;;5036716;28;20498;-67
2023/07/21 10:12:10;;;;;;;5.10;3.83;;;24.40;99.90;;;;;;5037137;28;20030;-68
2023/07/21 10:14:38;;;;;;;4.40;3.55;;;24.50;99.90;;;;;;5037790;28;20022;-71
2023/07/21 10:17:05;;;;;;;5.05;3.70;;;24.40;99.90;;;;;;5037362;28;20029;-67
2023/07/21 10:19:39;;;;;;;4.30;3.70;;;24.80;99.90;;;;;;5036303;28;20030;-67
2023/07/21 10:22:05;;;;;;;5.05;3.83;;;24.80;99.90;;;;;;5035064;28;20037;-68
2023/07/21 10:24:34;;;;;;;5.03;3.92;;;24.80;99.90;;;;;;5036441;28;20040;-68
2023/07/21 10:27:05;;;;;;;6.22;3.65;;;25.30;99.90;;;;;;5036094;28;20111;-68
2023/07/21 10:29:31;;;;;;;3.47;3.15;;;25.40;99.90;;;;;;5036321;28;20026;-68
2023/07/21 10:31:58;;;;;;;3.50;3.15;;;25.30;99.90;;;;;;5036304;28;20026;-68
2023/07/21 10:34:26;;;;;;;4.70;2.92;;;25.20;99.90;;;;;;5036343;28;20023;-68
2023/07/21 10:36:52;;;;;;;4.15;3.28;;;25.20;99.90;;;;;;5036182;28;20018;-68
2023/07/21 10:39:26;;;;;;;3.50;3.20;;;25.50;99.90;;;;;;5036275;28;20108;-67
2023/07/21 10:41:58;;;;;;;4.13;3.00;;;25.60;99.90;;;;;;5036111;28;20061;-68
2023/07/21 10:44:30;;;;;;;3.70;2.97;;;25.60;99.90;;;;;;5036037;28;20022;-68
2023/07/21 10:46:56;;;;;;;4.00;3.00;;;25.70;99.90;;;;;;5035893;28;20037;-67
2023/07/21 10:49:22;;;;;;;3.00;2.70;;;25.80;99.90;;;;;;5035541;28;20096;-68
2023/07/21 10:51:49;;;;;;;3.92;2.95;;;26.10;99.90;;;;;;5034022;28;20368;-68
2023/07/21 10:54:16;;;;;;;3.20;2.90;;;26.40;1.00;;;;;;5035430;28;20030;-68
2023/07/21 10:56:44;;;;;;;3.25;2.80;;;26.70;1.00;;;;;;5029767;28;20061;-70
2023/07/21 10:59:11;;;;;;;3.63;3.20;;;26.90;1.00;;;;;;5032465;28;20120;-74
2023/07/21 11:01:44;;;;;;;3.17;2.80;;;27.60;1.00;;;;;;5035878;28;20104;-72
2023/07/21 11:04:11;;;;;;;5.27;3.67;;;27.90;1.00;;;;;;5035816;28;20037;-68
2023/07/21 11:06:41;;;;;;;5.47;3.28;;;28.00;1.00;;;;;;5035188;28;20331;-67
2023/07/21 11:09:11;;;;;;;4.57;3.53;;;28.10;1.00;;;;;;5035521;28;20032;-63
2023/07/21 11:11:57;;;;;;;4.65;3.80;;;28.40;1.00;;;;;;5035706;28;20105;-68
2023/07/21 11:14:25;;;;;;;4.57;4.13;;;28.60;1.00;;;;;;5035311;28;20053;-68
2023/07/21 11:17:00;;;;;;;8.00;5.50;;;29.00;1.00;;;;;;5035815;28;20033;-69
2023/07/21 11:19:27;;;;;;;4.35;3.50;;;28.80;1.00;;;;;;5035275;28;20026;-72
2023/07/21 11:21:53;;;;;;;5.28;4.45;;;28.80;1.00;;;;;;5035458;28;20078;-70
2023/07/21 11:24:25;;;;;;;4.85;3.78;;;29.00;1.00;;;;;;5035790;28;20107;-68
2023/07/21 11:26:56;;;;;;;6.38;3.75;;;29.60;99.90;;;;;;5035388;28;20168;-65
2023/07/21 11:29:23;;;;;;;4.50;3.70;;;29.70;99.90;;;;;;5035591;28;20074;-63
2023/07/21 11:31:49;;;;;;;5.57;3.80;;;29.80;99.90;;;;;;5035115;28;20037;-76
2023/07/21 11:34:22;;;;;;;5.05;4.22;;;29.90;99.90;;;;;;5035246;28;20402;-62
2023/07/21 11:36:58;;;;;;;4.75;3.75;;;31.50;99.90;;;;;;5035407;28;20483;-63
2023/07/21 11:39:25;;;;;;;4.38;4.03;;;34.40;99.90;;;;;;5035222;28;20049;-64
2023/07/21 11:41:55;;;;;;;4.43;4.03;;;35.40;99.90;;;;;;5035110;28;20479;-70
2023/07/21 11:44:23;;;;;;;3.97;3.67;;;35.90;99.90;;;;;;5035110;28;20105;-68
2023/07/21 11:47:10;;;;;;;9.77;5.25;;;36.50;99.90;;;;;;5033777;28;20040;-62
2023/07/21 11:49:41;;;;;;;7.32;6.13;;;37.60;99.90;;;;;;5019786;28;20026;-62
2023/07/21 11:52:09;;;;;;;5.50;5.00;;;38.20;99.90;;;;;;5033662;28;20494;-62
2023/07/21 11:54:44;;;;;;;5.32;4.22;;;38.90;99.90;;;;;;5033234;28;20036;-62
2023/07/21 11:57:11;;;;;;;4.80;4.05;;;39.40;99.90;;;;;;5033665;28;20029;-63
2023/07/21 11:59:37;;;;;;;6.25;4.70;;;39.50;99.90;;;;;;5032296;28;20133;-62
2023/07/21 12:02:06;;;;;;;4.95;4.55;;;38.90;99.90;;;;;;5032659;28;20028;-62
2023/07/21 12:04:33;;;;;;;5.68;4.85;;;36.40;99.90;;;;;;5035054;28;20021;-62
2023/07/21 12:07:00;;;;;;;6.00;4.30;;;35.90;99.90;;;;;;5034403;28;20056;-62
2023/07/21 12:09:26;;;;;;;5.55;4.50;;;36.10;99.90;;;;;;5033945;28;20037;-62
2023/07/21 12:11:56;;;;;;;4.60;4.20;;;36.30;99.90;;;;;;5013088;28;20387;-62
2023/07/21 12:14:26;;;;;;;4.68;4.10;;;37.20;99.90;;;;;;5028638;28;20033;-62
2023/07/21 12:16:55;;;;;;;5.00;4.15;;;38.10;99.90;;;;;;5033399;28;20481;-62
2023/07/21 12:19:23;;;;;;;4.65;4.25;;;38.00;99.90;;;;;;5032330;28;20033;-62
2023/07/21 12:21:49;;;;;;;4.25;3.95;;;37.00;99.90;;;;;;5034599;28;20026;-62
2023/07/21 12:24:14;;;;;;;4.72;4.38;;;35.60;99.90;;;;;;5034373;28;20091;-62
2023/07/21 12:26:40;;;;;;;4.63;4.22;;;35.40;99.90;;;;;;5034211;28;20032;-62
2023/07/21 12:29:06;;;;;;;4.10;3.78;;;35.50;99.90;;;;;;5034143;28;20368;-62
2023/07/21 12:31:32;;;;;;;4.50;4.10;;;35.80;99.90;;;;;;5034694;28;20437;-62
2023/07/21 12:33:57;;;;;;;4.97;4.22;;;36.70;99.90;;;;;;5033981;28;20041;-62
2023/07/21 12:36:23;;;;;;;4.45;4.05;;;36.40;99.90;;;;;;5034117;28;20033;-62
2023/07/21 12:38:49;;;;;;;4.00;3.70;;;36.40;99.90;;;;;;5033817;28;20029;-62
2023/07/21 12:41:16;;;;;;;3.88;3.58;;;36.00;99.90;;;;;;5033916;28;20021;-62
2023/07/21 12:43:42;;;;;;;5.32;4.68;;;35.80;99.90;;;;;;5032512;28;20030;-62
2023/07/21 12:46:11;;;;;;;4.30;3.90;;;35.80;99.90;;;;;;5021627;28;20030;-62